createdAt,value
2023-02-16T00:04:08.503Z,16.3
2023-02-16T00:14:08.589Z,16
2023-02-16T00:24:08.118Z,16.6
2023-02-16T00:34:07.708Z,16.8
2023-02-16T00:44:07.792Z,16.1
2023-02-16T00:54:07.084Z,16.5
2023-02-16T01:04:06.708Z,16.7
2023-02-16T01:14:06.782Z,16.3
2023-02-16T01:24:06.715Z,20.8
2023-02-16T01:34:06.214Z,16.3
2023-02-16T01:44:06.568Z,20.9
2023-02-16T01:54:05.855Z,16.3
2023-02-16T02:04:05.587Z,16.6
2023-02-16T02:14:05.248Z,16.1
2023-02-16T02:24:04.817Z,16.6
2023-02-16T02:34:05.018Z,16.2
2023-02-16T02:44:04.987Z,15.9
2023-02-16T02:54:04.050Z,16.3
2023-02-16T03:05:07.199Z,16.6
2023-02-16T03:15:07.399Z,16.6
2023-02-16T03:25:07.583Z,16.4
2023-02-16T03:35:06.498Z,16.5
2023-02-16T03:45:05.736Z,21.4
2023-02-16T03:55:05.719Z,16.1
2023-02-16T04:05:06.243Z,16
2023-02-16T04:15:06.346Z,16.6
2023-02-16T04:25:06.981Z,16.4
2023-02-16T04:35:07.308Z,21.1
2023-02-16T04:45:08.328Z,16.2
2023-02-16T04:55:09.533Z,20.3
2023-02-16T05:05:09.742Z,15.7
2023-02-16T05:15:09.700Z,15.8
2023-02-16T05:25:09.166Z,16.1
2023-02-16T05:35:08.403Z,16.3
2023-02-16T05:45:08.112Z,15.9
2023-02-16T05:55:07.734Z,15.8
2023-02-16T06:05:10.262Z,27.6
2023-02-16T06:15:17.644Z,29.1
2023-02-16T06:25:25.964Z,29
2023-02-16T06:35:34.340Z,30.3
2023-02-16T06:45:44.005Z,32.1
2023-02-16T06:55:54.580Z,30.6
2023-02-16T07:06:03.512Z,30.8
2023-02-16T07:16:12.675Z,30.9
2023-02-16T07:26:22.678Z,30.6
2023-02-16T07:36:32.061Z,31
2023-02-16T07:46:42.917Z,32.1
2023-02-16T07:56:55.051Z,31.8
2023-02-16T08:07:05.869Z,31.4
2023-02-16T08:17:18.497Z,30.8
2023-02-16T08:27:26.531Z,31.4
2023-02-16T08:37:37.745Z,30.8
2023-02-16T08:47:45.970Z,31.2
2023-02-16T08:56:12.638Z,30.8
2023-02-16T09:05:12.624Z,31.7
2023-02-16T09:14:43.812Z,33.9
2023-02-16T09:26:40.830Z,33.8
2023-02-16T09:36:55.298Z,33.8
2023-02-16T09:47:09.006Z,33.3
2023-02-16T09:57:19.540Z,33
2023-02-16T10:07:27.346Z,29.5
2023-02-16T10:17:38.255Z,33.5
2023-02-16T10:27:50.696Z,32.6
2023-02-16T10:38:03.386Z,33.9
2023-02-16T10:48:17.284Z,33.1
2023-02-16T10:58:30.469Z,32.4
2023-02-16T11:08:43.235Z,31.8
2023-02-16T11:18:56.447Z,32.8
2023-02-16T11:29:08.290Z,32.2
2023-02-16T11:39:20.145Z,31.1
2023-02-16T11:49:31.909Z,31.3
2023-02-16T11:59:43.477Z,32
2023-02-16T12:09:54.538Z,30.2
2023-02-16T12:20:01.484Z,28.3
2023-02-16T12:30:07.002Z,25.4
2023-02-16T12:40:11.841Z,23.9
2023-02-16T12:50:15.910Z,22.9
2023-02-16T13:00:19.827Z,22.8
2023-02-16T13:10:23.605Z,22.8
2023-02-16T13:20:27.282Z,22.6
2023-02-16T13:30:31.138Z,22.4
2023-02-16T13:40:34.841Z,22.1
2023-02-16T13:50:38.388Z,22.4
2023-02-16T14:00:42.112Z,21.9
2023-02-16T14:10:45.803Z,21.9
2023-02-16T14:20:50.747Z,21.8
2023-02-16T14:30:52.965Z,22.3
2023-02-16T14:40:56.600Z,22.4
2023-02-16T14:50:59.037Z,22.4
2023-02-16T15:05:07.760Z,22.4
2023-02-16T15:15:10.556Z,22.9
2023-02-16T15:25:14.129Z,22.6
2023-02-16T15:35:17.064Z,21.9
2023-02-16T15:45:19.527Z,22.1
2023-02-16T15:55:21.968Z,22.8
2023-02-16T16:05:24.968Z,22.1
2023-02-16T16:15:28.630Z,22.2
2023-02-16T16:25:30.841Z,22.4
2023-02-16T16:35:32.303Z,17.7
2023-02-16T16:45:35.676Z,17.6
2023-02-16T16:55:38.436Z,17.6
2023-02-16T17:05:38.661Z,17.6
2023-02-16T17:15:40.117Z,17.5
2023-02-16T17:25:39.922Z,17.5
2023-02-16T17:35:39.455Z,17.9
2023-02-16T17:45:40.716Z,17.6
2023-02-16T17:55:42.731Z,22.4
2023-02-16T18:05:43.485Z,22.4
2023-02-16T18:15:44.567Z,17.6
2023-02-16T18:25:45.635Z,17.8
2023-02-16T18:35:46.130Z,17.7
2023-02-16T18:45:45.668Z,17.8
2023-02-16T18:55:45.797Z,17.8
2023-02-16T19:05:45.588Z,17.7
2023-02-16T19:15:44.911Z,17.9
2023-02-16T19:25:43.949Z,17.9
2023-02-16T19:35:43.725Z,17.9
2023-02-16T19:45:44.540Z,22.4
2023-02-16T19:55:45.406Z,17.4
2023-02-16T20:05:44.833Z,17.7
2023-02-16T20:15:45.089Z,17.8
2023-02-16T20:25:45.843Z,17.7
2023-02-16T20:35:46.941Z,22.2
2023-02-16T20:45:47.525Z,17.7
2023-02-16T20:55:47.974Z,21.8
2023-02-16T21:05:08.576Z,17.8
2023-02-16T21:15:08.894Z,17.7
2023-02-16T21:25:09.842Z,17.8
2023-02-16T21:35:10.746Z,17.8
2023-02-16T21:45:11.729Z,22.3
2023-02-16T21:55:12.023Z,18.1
2023-02-16T22:05:12.436Z,17.9
2023-02-16T22:15:14.223Z,18.1
2023-02-16T22:25:17.227Z,21.9
2023-02-16T22:35:19.212Z,17.3
2023-02-16T22:45:20.735Z,18
2023-02-16T22:55:21.912Z,22.5
2023-02-16T23:05:22.972Z,17.4
2023-02-16T23:15:21.723Z,18
2023-02-16T23:25:22.491Z,17.9
2023-02-16T23:35:23.174Z,18.1
2023-02-16T23:45:22.450Z,17.9
2023-02-16T23:55:22.620Z,17.7
